createdAt,value
2022-12-26T13:03:19.141Z,76.61
2022-12-26T13:07:47.203Z,76.79
2022-12-26T13:12:08.686Z,76.91
2022-12-26T13:16:32.636Z,77.46
2022-12-26T13:21:04.253Z,77.87
2022-12-26T13:25:25.568Z,77.92
2022-12-26T13:29:46.051Z,78.17
2022-12-26T13:34:05.022Z,78.50
2022-12-26T13:38:24.138Z,78.37
2022-12-26T13:43:15.792Z,78.51
2022-12-26T13:47:39.882Z,78.72
2022-12-26T13:52:19.401Z,78.52
2022-12-26T13:56:45.855Z,78.52
2022-12-26T14:01:33.888Z,78.14
2022-12-26T14:06:30.028Z,78.32
2022-12-26T14:10:56.501Z,78.54
2022-12-26T14:15:28.320Z,79.18
2022-12-26T14:19:59.389Z,79.13
2022-12-26T14:24:41.831Z,79.18
2022-12-26T14:29:20.350Z,79.20
2022-12-26T14:33:40.784Z,80.40
2022-12-26T14:38:29.983Z,82.16
2022-12-26T14:43:11.721Z,84.54
2022-12-26T14:47:49.951Z,86.83
2022-12-26T14:52:25.037Z,88.72
2022-12-26T14:56:43.047Z,89.86
2022-12-26T15:01:09.098Z,90.73
2022-12-26T15:05:32.959Z,91.68
2022-12-26T15:10:31.404Z,91.97
2022-12-26T15:15:15.978Z,92.58
2022-12-26T15:20:00.856Z,92.32
2022-12-26T15:25:16.877Z,92.48
2022-12-26T15:29:57.021Z,92.66
2022-12-26T15:34:40.712Z,92.71
2022-12-26T15:39:36.191Z,92.34
2022-12-26T15:44:07.710Z,92.11
2022-12-26T15:49:16.077Z,91.70
2022-12-26T15:54:11.627Z,90.87
2022-12-26T15:59:18.616Z,90.88
2022-12-26T16:03:51.208Z,90.93
2022-12-26T16:08:46.703Z,89.85
2022-12-26T16:13:12.184Z,90.63
2022-12-26T16:17:29.986Z,90.69
2022-12-26T16:22:14.391Z,90.39
2022-12-26T16:26:35.223Z,90.49
2022-12-26T16:30:52.922Z,90.35
2022-12-26T16:35:23.089Z,90.11
2022-12-26T16:39:40.181Z,90.04
2022-12-26T16:44:18.592Z,89.48
2022-12-26T16:48:37.159Z,90.30
2022-12-26T16:53:22.606Z,91.64
2022-12-26T16:57:42.587Z,92.52
2022-12-26T17:02:00.711Z,92.10
2022-12-26T17:06:30.062Z,92.08
2022-12-26T17:10:49.919Z,92.00
2022-12-26T17:15:08.384Z,91.59
2022-12-26T17:19:31.846Z,91.53
2022-12-26T17:24:15.184Z,92.22
2022-12-26T17:28:32.034Z,92.49
2022-12-26T17:32:49.208Z,92.62
2022-12-26T17:37:20.093Z,92.95
2022-12-26T17:41:43.633Z,92.83
2022-12-26T17:46:02.190Z,92.66
2022-12-26T17:50:19.464Z,92.65
2022-12-26T17:54:36.521Z,92.61
2022-12-26T17:58:55.338Z,91.79
2022-12-26T18:03:12.997Z,92.42
2022-12-26T18:07:31.696Z,92.14
2022-12-26T18:11:48.847Z,92.40
2022-12-26T18:16:06.895Z,92.05
2022-12-26T18:20:26.283Z,92.14
2022-12-26T18:24:44.073Z,93.10
2022-12-26T18:29:01.878Z,93.12
2022-12-26T18:33:18.753Z,92.47
2022-12-26T18:37:35.906Z,92.75
2022-12-26T18:41:52.812Z,92.55
2022-12-26T18:46:18.500Z,92.43
2022-12-26T18:50:38.045Z,92.36
2022-12-26T18:54:55.196Z,92.45
2022-12-26T18:59:15.024Z,92.34
2022-12-26T19:03:32.138Z,92.10
2022-12-26T19:07:50.193Z,92.24
2022-12-26T19:12:07.167Z,91.85
2022-12-26T19:16:24.198Z,92.09
2022-12-26T19:20:44.556Z,92.02
2022-12-26T19:25:01.458Z,91.80
2022-12-26T19:29:18.601Z,91.80
2022-12-26T19:33:35.553Z,91.94
2022-12-26T19:37:52.684Z,91.54
2022-12-26T19:42:09.566Z,91.61
2022-12-26T19:46:27.939Z,91.71
2022-12-26T19:50:44.816Z,91.78
2022-12-26T19:55:02.036Z,91.67
2022-12-26T19:59:19.063Z,91.48
2022-12-26T20:03:37.044Z,91.74
2022-12-26T20:07:53.855Z,91.26
2022-12-26T20:12:10.903Z,91.46
2022-12-26T20:21:07.077Z,92.10
2022-12-26T20:25:24.259Z,92.57
2022-12-26T20:29:41.172Z,93.52
2022-12-26T20:33:58.830Z,94.03
2022-12-26T20:38:15.697Z,94.24
2022-12-26T20:42:33.179Z,94.36
2022-12-26T20:46:50.129Z,94.34
2022-12-26T20:51:12.347Z,94.39
2022-12-26T20:55:29.443Z,94.44
2022-12-26T20:59:46.585Z,94.40
2022-12-26T21:04:04.135Z,94.17
2022-12-26T21:08:21.654Z,94.19
2022-12-26T21:12:38.618Z,94.14
2022-12-26T21:16:58.898Z,94.03
2022-12-26T21:21:32.372Z,93.96
2022-12-26T21:25:49.458Z,94.10
2022-12-26T21:30:07.255Z,93.80
2022-12-26T21:34:27.910Z,93.82
2022-12-26T21:38:44.773Z,93.92
2022-12-26T21:43:01.960Z,93.87
2022-12-26T21:47:19.143Z,93.90
2022-12-26T21:51:36.220Z,94.03
2022-12-26T21:55:53.086Z,94.13
2022-12-26T22:00:10.812Z,94.05
2022-12-26T22:04:29.574Z,93.95
2022-12-26T22:08:46.472Z,93.95
2022-12-26T22:13:04.794Z,94.01
2022-12-26T22:17:21.629Z,94.08
2022-12-26T22:21:38.722Z,94.15
2022-12-26T22:25:56.473Z,94.00
2022-12-26T22:30:13.816Z,94.18
2022-12-26T22:34:30.919Z,94.03
2022-12-26T22:38:47.799Z,93.91
2022-12-26T22:43:04.862Z,93.93
2022-12-26T22:47:21.736Z,93.88
2022-12-26T22:51:39.631Z,93.71
2022-12-26T22:56:00.332Z,93.69
2022-12-26T23:00:17.391Z,93.58
2022-12-26T23:04:34.935Z,93.60
2022-12-26T23:08:54.502Z,93.52
2022-12-26T23:13:13.659Z,93.59
2022-12-26T23:17:53.900Z,93.65
2022-12-26T23:22:11.337Z,93.63
2022-12-26T23:26:28.176Z,93.43
2022-12-26T23:30:45.235Z,93.22
2022-12-26T23:35:02.116Z,93.55
2022-12-26T23:39:19.285Z,93.34
2022-12-26T23:43:36.476Z,93.27
2022-12-26T23:47:53.597Z,93.09
2022-12-26T23:52:10.494Z,93.40
2022-12-26T23:56:28.105Z,93.39
